sensor_id;sensor_type;location;lat;lon;timestamp;pressure;altitude;pressure_sealevel;temperature;humidity
21988;BME280;11158;53.404;-1.510;2024-03-23T00:55:00;100243.19;;;4.30;99.58
21988;BME280;11158;53.404;-1.510;2024-03-23T00:57:26;100227.66;;;4.62;98.18
21988;BME280;11158;53.404;-1.510;2024-03-23T00:59:51;100218.31;;;4.45;97.86
21988;BME280;11158;53.404;-1.510;2024-03-23T01:02:16;100222.53;;;4.54;98.09
21988;BME280;11158;53.404;-1.510;2024-03-23T01:04:42;100209.22;;;4.60;96.76
21988;BME280;11158;53.404;-1.510;2024-03-23T01:07:07;100219.47;;;4.74;96.20
21988;BME280;11158;53.404;-1.510;2024-03-23T01:09:32;100207.88;;;4.83;95.41
21988;BME280;11158;53.404;-1.510;2024-03-23T01:11:58;100206.00;;;4.88;94.81
21988;BME280;11158;53.404;-1.510;2024-03-23T01:14:23;100203.34;;;4.89;92.86
21988;BME280;11158;53.404;-1.510;2024-03-23T01:16:48;100199.72;;;4.95;92.80
21988;BME280;11158;53.404;-1.510;2024-03-23T01:19:14;100196.13;;;4.98;94.93
21988;BME280;11158;53.404;-1.510;2024-03-23T01:21:39;100197.91;;;4.97;92.10
21988;BME280;11158;53.404;-1.510;2024-03-23T01:24:05;100195.16;;;5.02;91.75
21988;BME280;11158;53.404;-1.510;2024-03-23T01:26:30;100196.84;;;5.04;92.63
21988;BME280;11158;53.404;-1.510;2024-03-23T01:28:55;100196.81;;;5.06;90.20
21988;BME280;11158;53.404;-1.510;2024-03-23T01:31:20;100196.84;;;5.04;90.20
21988;BME280;11158;53.404;-1.510;2024-03-23T01:33:46;100192.53;;;5.00;90.83
21988;BME280;11158;53.404;-1.510;2024-03-23T01:36:11;100195.13;;;5.03;88.42
21988;BME280;11158;53.404;-1.510;2024-03-23T01:38:36;100179.25;;;5.03;88.54
21988;BME280;11158;53.404;-1.510;2024-03-23T01:41:02;100170.47;;;5.03;87.87
21988;BME280;11158;53.404;-1.510;2024-03-23T01:43:27;100163.31;;;5.06;87.37
21988;BME280;11158;53.404;-1.510;2024-03-23T01:45:53;100160.47;;;5.16;86.98
21988;BME280;11158;53.404;-1.510;2024-03-23T01:48:21;100165.06;;;5.07;85.11
21988;BME280;11158;53.404;-1.510;2024-03-23T01:50:47;100167.78;;;5.04;83.98
21988;BME280;11158;53.404;-1.510;2024-03-23T01:53:14;100160.75;;;5.05;83.07
21988;BME280;11158;53.404;-1.510;2024-03-23T01:55:42;100153.75;;;5.02;84.08
21988;BME280;11158;53.404;-1.510;2024-03-23T01:58:08;100162.59;;;5.01;84.76
21988;BME280;11158;53.404;-1.510;2024-03-23T02:00:33;100158.19;;;5.00;81.78
21988;BME280;11158;53.404;-1.510;2024-03-23T02:02:59;100152.09;;;4.97;81.23
21988;BME280;11158;53.404;-1.510;2024-03-23T02:05:24;100157.38;;;4.97;82.05
21988;BME280;11158;53.404;-1.510;2024-03-23T02:07:49;100139.84;;;4.94;82.74
21988;BME280;11158;53.404;-1.510;2024-03-23T02:10:15;100157.31;;;5.01;83.35
21988;BME280;11158;53.404;-1.510;2024-03-23T02:12:41;100158.03;;;5.06;83.40
21988;BME280;11158;53.404;-1.510;2024-03-23T02:15:07;100159.84;;;5.04;84.79
21988;BME280;11158;53.404;-1.510;2024-03-23T02:17:35;100136.91;;;5.06;82.98
21988;BME280;11158;53.404;-1.510;2024-03-23T02:20:01;100140.53;;;5.02;82.94
21988;BME280;11158;53.404;-1.510;2024-03-23T02:22:36;100128.13;;;5.06;81.71
21988;BME280;11158;53.404;-1.510;2024-03-23T02:25:06;100133.31;;;5.11;79.89
21988;BME280;11158;53.404;-1.510;2024-03-23T02:27:32;100132.41;;;5.12;80.42
21988;BME280;11158;53.404;-1.510;2024-03-23T02:29:58;100130.81;;;5.04;82.21
21988;BME280;11158;53.404;-1.510;2024-03-23T02:32:23;100125.63;;;5.00;82.44
21988;BME280;11158;53.404;-1.510;2024-03-23T02:34:49;100132.81;;;4.93;86.36
21988;BME280;11158;53.404;-1.510;2024-03-23T02:37:14;100127.69;;;4.87;87.80
21988;BME280;11158;53.404;-1.510;2024-03-23T02:39:39;100129.53;;;4.83;92.25
21988;BME280;11158;53.404;-1.510;2024-03-23T02:42:05;100130.63;;;4.73;92.40
21988;BME280;11158;53.404;-1.510;2024-03-23T02:44:30;100127.41;;;4.59;93.62
21988;BME280;11158;53.404;-1.510;2024-03-23T02:46:55;100129.19;;;4.58;96.41
21988;BME280;11158;53.404;-1.510;2024-03-23T02:49:21;100127.59;;;4.51;98.01
21988;BME280;11158;53.404;-1.510;2024-03-23T02:51:46;100135.53;;;4.49;98.13
21988;BME280;11158;53.404;-1.510;2024-03-23T02:54:13;100133.81;;;4.48;99.05
21988;BME280;11158;53.404;-1.510;2024-03-23T02:56:39;100138.13;;;4.53;99.80
21988;BME280;11158;53.404;-1.510;2024-03-23T02:59:04;100132.13;;;4.44;100.00
21988;BME280;11158;53.404;-1.510;2024-03-23T03:01:29;100122.56;;;4.40;100.00
21988;BME280;11158;53.404;-1.510;2024-03-23T03:03:55;100128.25;;;4.19;99.24
21988;BME280;11158;53.404;-1.510;2024-03-23T03:06:24;100131.94;;;4.10;100.00
21988;BME280;11158;53.404;-1.510;2024-03-23T03:08:50;100129.38;;;4.07;100.00
21988;BME280;11158;53.404;-1.510;2024-03-23T03:11:15;100127.38;;;4.18;100.00
21988;BME280;11158;53.404;-1.510;2024-03-23T03:13:41;100121.00;;;4.30;100.00
21988;BME280;11158;53.404;-1.510;2024-03-23T03:16:10;100113.84;;;4.35;96.45
21988;BME280;11158;53.404;-1.510;2024-03-23T03:18:35;100111.00;;;4.46;93.73
21988;BME280;11158;53.404;-1.510;2024-03-23T03:21:01;100104.84;;;4.45;93.10
21988;BME280;11158;53.404;-1.510;2024-03-23T03:23:26;100106.38;;;4.57;93.38
21988;BME280;11158;53.404;-1.510;2024-03-23T03:25:52;100102.09;;;4.52;91.64
21988;BME280;11158;53.404;-1.510;2024-03-23T03:28:17;100098.47;;;4.56;91.77
21988;BME280;11158;53.404;-1.510;2024-03-23T03:30:42;100097.47;;;4.61;89.46
21988;BME280;11158;53.404;-1.510;2024-03-23T03:33:08;100079.75;;;4.66;88.79
21988;BME280;11158;53.404;-1.510;2024-03-23T03:35:33;100083.97;;;4.74;89.43
21988;BME280;11158;53.404;-1.510;2024-03-23T03:37:58;100076.09;;;4.72;90.44
21988;BME280;11158;53.404;-1.510;2024-03-23T03:40:24;100071.75;;;4.69;90.94
21988;BME280;11158;53.404;-1.510;2024-03-23T03:42:50;100084.94;;;4.71;90.27
21988;BME280;11158;53.404;-1.510;2024-03-23T03:45:15;100073.53;;;4.69;88.13
21988;BME280;11158;53.404;-1.510;2024-03-23T03:47:41;100054.16;;;4.70;88.01
21988;BME280;11158;53.404;-1.510;2024-03-23T03:50:06;100055.03;;;4.71;85.85
21988;BME280;11158;53.404;-1.510;2024-03-23T03:52:32;100052.31;;;4.74;83.13
21988;BME280;11158;53.404;-1.510;2024-03-23T03:55:01;100042.56;;;4.76;83.12
21988;BME280;11158;53.404;-1.510;2024-03-23T03:57:27;100037.41;;;4.71;84.30
21988;BME280;11158;53.404;-1.510;2024-03-23T03:59:53;100025.13;;;4.68;85.18
21988;BME280;11158;53.404;-1.510;2024-03-23T04:02:18;100012.13;;;4.61;86.19
21988;BME280;11158;53.404;-1.510;2024-03-23T04:04:43;100008.81;;;4.53;88.72
21988;BME280;11158;53.404;-1.510;2024-03-23T04:07:09;100005.41;;;4.47;88.23
21988;BME280;11158;53.404;-1.510;2024-03-23T04:09:34;100016.84;;;4.48;89.18
21988;BME280;11158;53.404;-1.510;2024-03-23T04:11:59;100015.84;;;4.52;88.75
21988;BME280;11158;53.404;-1.510;2024-03-23T04:14:24;100020.84;;;4.64;91.24
21988;BME280;11158;53.404;-1.510;2024-03-23T04:16:50;100032.66;;;4.48;94.66
21988;BME280;11158;53.404;-1.510;2024-03-23T04:19:15;100028.81;;;4.22;96.72
21988;BME280;11158;53.404;-1.510;2024-03-23T04:21:40;100027.41;;;4.06;99.82
21988;BME280;11158;53.404;-1.510;2024-03-23T04:24:06;100022.41;;;3.94;100.00
21988;BME280;11158;53.404;-1.510;2024-03-23T04:26:40;100018.44;;;3.72;100.00
21988;BME280;11158;53.404;-1.510;2024-03-23T04:29:06;100015.28;;;3.54;100.00
21988;BME280;11158;53.404;-1.510;2024-03-23T04:31:32;100004.88;;;3.47;100.00
21988;BME280;11158;53.404;-1.510;2024-03-23T04:33:59;99997.06;;;3.41;100.00
21988;BME280;11158;53.404;-1.510;2024-03-23T04:36:25;99996.91;;;3.49;100.00
21988;BME280;11158;53.404;-1.510;2024-03-23T04:38:50;99992.38;;;3.57;100.00
21988;BME280;11158;53.404;-1.510;2024-03-23T04:41:17;99975.47;;;3.67;100.00
21988;BME280;11158;53.404;-1.510;2024-03-23T04:43:43;99983.97;;;3.83;100.00
21988;BME280;11158;53.404;-1.510;2024-03-23T04:46:08;99988.06;;;3.97;100.00
21988;BME280;11158;53.404;-1.510;2024-03-23T04:48:34;99987.44;;;4.26;99.16
21988;BME280;11158;53.404;-1.510;2024-03-23T04:50:59;99977.00;;;4.20;99.10
21988;BME280;11158;53.404;-1.510;2024-03-23T04:53:24;99976.28;;;4.11;99.51
21988;BME280;11158;53.404;-1.510;2024-03-23T04:55:54;99980.09;;;3.98;100.00
21988;BME280;11158;53.404;-1.510;2024-03-23T04:58:20;99973.13;;;3.97;100.00
21988;BME280;11158;53.404;-1.510;2024-03-23T05:00:45;99981.25;;;3.86;98.36
21988;BME280;11158;53.404;-1.510;2024-03-23T05:03:10;99958.44;;;3.85;97.74
21988;BME280;11158;53.404;-1.510;2024-03-23T05:05:36;99962.63;;;3.94;98.78
21988;BME280;11158;53.404;-1.510;2024-03-23T05:08:01;99957.59;;;3.83;98.97
21988;BME280;11158;53.404;-1.510;2024-03-23T05:10:26;99951.25;;;3.92;96.21
21988;BME280;11158;53.404;-1.510;2024-03-23T05:12:52;99946.88;;;3.91;94.61
21988;BME280;11158;53.404;-1.510;2024-03-23T05:15:17;99961.53;;;4.04;92.85
21988;BME280;11158;53.404;-1.510;2024-03-23T05:17:43;99955.63;;;3.93;94.00
21988;BME280;11158;53.404;-1.510;2024-03-23T05:20:08;99968.88;;;3.88;94.32
21988;BME280;11158;53.404;-1.510;2024-03-23T05:22:35;99954.56;;;4.00;95.32
21988;BME280;11158;53.404;-1.510;2024-03-23T05:25:01;99963.38;;;4.01;94.77
21988;BME280;11158;53.404;-1.510;2024-03-23T05:27:29;99965.75;;;4.11;93.29
21988;BME280;11158;53.404;-1.510;2024-03-23T05:29:54;99952.44;;;4.18;91.00
21988;BME280;11158;53.404;-1.510;2024-03-23T05:32:20;99957.75;;;4.16;91.99
21988;BME280;11158;53.404;-1.510;2024-03-23T05:34:45;99966.50;;;4.18;91.61
21988;BME280;11158;53.404;-1.510;2024-03-23T05:37:11;99967.38;;;4.17;91.16
21988;BME280;11158;53.404;-1.510;2024-03-23T05:39:36;99950.91;;;4.07;91.68
21988;BME280;11158;53.404;-1.510;2024-03-23T05:42:01;99940.28;;;4.10;91.82
21988;BME280;11158;53.404;-1.510;2024-03-23T05:44:27;99935.06;;;4.07;90.86
21988;BME280;11158;53.404;-1.510;2024-03-23T05:46:52;99937.75;;;4.06;91.95
21988;BME280;11158;53.404;-1.510;2024-03-23T05:49:17;99939.66;;;3.99;93.64
21988;BME280;11158;53.404;-1.510;2024-03-23T05:51:43;99943.13;;;4.01;94.59
21988;BME280;11158;53.404;-1.510;2024-03-23T05:54:09;99937.81;;;4.04;92.82
21988;BME280;11158;53.404;-1.510;2024-03-23T05:56:34;99942.91;;;4.12;90.99
21988;BME280;11158;53.404;-1.510;2024-03-23T05:58:59;99931.63;;;4.04;92.21
21988;BME280;11158;53.404;-1.510;2024-03-23T06:01:25;99939.50;;;4.07;91.81
21988;BME280;11158;53.404;-1.510;2024-03-23T06:03:54;99926.19;;;4.11;90.77
21988;BME280;11158;53.404;-1.510;2024-03-23T06:06:19;99928.63;;;4.21;89.04
21988;BME280;11158;53.404;-1.510;2024-03-23T06:08:44;99918.97;;;4.21;87.73
21988;BME280;11158;53.404;-1.510;2024-03-23T06:11:09;99920.72;;;4.21;87.16
21988;BME280;11158;53.404;-1.510;2024-03-23T06:13:35;99922.63;;;4.14;87.84
21988;BME280;11158;53.404;-1.510;2024-03-23T06:16:00;99926.06;;;4.18;89.21
21988;BME280;11158;53.404;-1.510;2024-03-23T06:18:26;99928.91;;;4.08;89.68
21988;BME280;11158;53.404;-1.510;2024-03-23T06:20:51;99931.72;;;4.01;90.89
21988;BME280;11158;53.404;-1.510;2024-03-23T06:23:17;99932.63;;;4.00;88.51
21988;BME280;11158;53.404;-1.510;2024-03-23T06:25:45;99925.53;;;4.02;86.74
21988;BME280;11158;53.404;-1.510;2024-03-23T06:28:10;99932.38;;;4.10;86.17
21988;BME280;11158;53.404;-1.510;2024-03-23T06:30:35;99941.72;;;4.25;87.20
21988;BME280;11158;53.404;-1.510;2024-03-23T06:33:01;99942.34;;;4.37;90.49
21988;BME280;11158;53.404;-1.510;2024-03-23T06:35:27;99935.63;;;4.23;90.13
21988;BME280;11158;53.404;-1.510;2024-03-23T06:37:52;99934.09;;;4.11;93.16
21988;BME280;11158;53.404;-1.510;2024-03-23T06:40:18;99926.44;;;4.02;93.32
21988;BME280;11158;53.404;-1.510;2024-03-23T06:42:43;99916.06;;;3.95;94.67
21988;BME280;11158;53.404;-1.510;2024-03-23T06:45:09;99929.16;;;3.98;94.21
21988;BME280;11158;53.404;-1.510;2024-03-23T06:47:35;99921.84;;;4.10;93.81
21988;BME280;11158;53.404;-1.510;2024-03-23T06:50:02;99934.06;;;4.13;93.34
21988;BME280;11158;53.404;-1.510;2024-03-23T06:52:28;99935.97;;;4.45;93.04
21988;BME280;11158;53.404;-1.510;2024-03-23T06:54:53;99914.56;;;4.58;90.07
21988;BME280;11158;53.404;-1.510;2024-03-23T06:57:18;99905.72;;;4.59;89.66
21988;BME280;11158;53.404;-1.510;2024-03-23T06:59:44;99911.13;;;4.54;89.45
21988;BME280;11158;53.404;-1.510;2024-03-23T07:02:09;99913.78;;;4.54;89.76
21988;BME280;11158;53.404;-1.510;2024-03-23T07:04:35;99923.81;;;4.74;85.25
21988;BME280;11158;53.404;-1.510;2024-03-23T07:07:01;99914.22;;;4.72;85.50
21988;BME280;11158;53.404;-1.510;2024-03-23T07:09:29;99925.78;;;4.66;87.14
21988;BME280;11158;53.404;-1.510;2024-03-23T07:11:56;99934.66;;;4.63;86.04
21988;BME280;11158;53.404;-1.510;2024-03-23T07:14:22;99918.00;;;4.61;85.11
21988;BME280;11158;53.404;-1.510;2024-03-23T07:16:47;99926.78;;;4.62;86.27
21988;BME280;11158;53.404;-1.510;2024-03-23T07:19:15;99920.22;;;4.78;87.74
21988;BME280;11158;53.404;-1.510;2024-03-23T07:21:42;99934.19;;;4.82;89.04
21988;BME280;11158;53.404;-1.510;2024-03-23T07:24:07;99923.22;;;4.63;92.63
21988;BME280;11158;53.404;-1.510;2024-03-23T07:26:32;99922.06;;;4.39;94.72
21988;BME280;11158;53.404;-1.510;2024-03-23T07:28:58;99920.22;;;4.42;95.47
21988;BME280;11158;53.404;-1.510;2024-03-23T07:31:23;99920.25;;;4.41;95.27
21988;BME280;11158;53.404;-1.510;2024-03-23T07:33:50;99920.25;;;4.41;93.98
21988;BME280;11158;53.404;-1.510;2024-03-23T07:36:15;99913.09;;;4.46;91.24
21988;BME280;11158;53.404;-1.510;2024-03-23T07:38:41;99919.09;;;4.51;91.10
21988;BME280;11158;53.404;-1.510;2024-03-23T07:41:17;99919.47;;;4.72;91.30
21988;BME280;11158;53.404;-1.510;2024-03-23T07:43:43;99926.19;;;4.85;88.76
21988;BME280;11158;53.404;-1.510;2024-03-23T07:46:09;99945.84;;;4.37;100.00
21988;BME280;11158;53.404;-1.510;2024-03-23T07:48:34;99928.44;;;3.91;100.00
21988;BME280;11158;53.404;-1.510;2024-03-23T07:53:26;99929.88;;;3.64;100.00
21988;BME280;11158;53.404;-1.510;2024-03-23T07:55:54;99925.25;;;3.74;100.00
21988;BME280;11158;53.404;-1.510;2024-03-23T07:58:20;99927.13;;;4.09;100.00
21988;BME280;11158;53.404;-1.510;2024-03-23T08:00:45;99919.59;;;4.31;100.00
21988;BME280;11158;53.404;-1.510;2024-03-23T08:03:10;99909.94;;;4.30;100.00
21988;BME280;11158;53.404;-1.510;2024-03-23T08:05:36;99907.13;;;4.38;100.00
21988;BME280;11158;53.404;-1.510;2024-03-23T08:08:01;99908.25;;;4.63;100.00
21988;BME280;11158;53.404;-1.510;2024-03-23T08:10:26;99899.53;;;4.61;100.00
21988;BME280;11158;53.404;-1.510;2024-03-23T08:12:52;99893.09;;;4.72;99.67
21988;BME280;11158;53.404;-1.510;2024-03-23T08:15:17;99906.00;;;4.84;97.68
21988;BME280;11158;53.404;-1.510;2024-03-23T08:17:42;99909.38;;;4.87;98.64
21988;BME280;11158;53.404;-1.510;2024-03-23T08:20:08;99913.19;;;4.77;97.42
21988;BME280;11158;53.404;-1.510;2024-03-23T08:22:33;99901.22;;;4.97;99.17
21988;BME280;11158;53.404;-1.510;2024-03-23T08:24:59;99894.81;;;5.07;96.76
21988;BME280;11158;53.404;-1.510;2024-03-23T08:27:24;99895.63;;;5.40;96.46
21988;BME280;11158;53.404;-1.510;2024-03-23T08:29:49;99896.22;;;5.50;97.98
21988;BME280;11158;53.404;-1.510;2024-03-23T08:32:15;99889.88;;;5.26;94.35
21988;BME280;11158;53.404;-1.510;2024-03-23T08:34:42;99893.56;;;5.20;94.16
21988;BME280;11158;53.404;-1.510;2024-03-23T08:37:07;99882.13;;;5.20;94.22
21988;BME280;11158;53.404;-1.510;2024-03-23T08:39:32;99881.47;;;5.12;91.71
21988;BME280;11158;53.404;-1.510;2024-03-23T08:41:58;99884.84;;;5.17;92.47
21988;BME280;11158;53.404;-1.510;2024-03-23T08:44:23;99876.44;;;5.34;91.87
21988;BME280;11158;53.404;-1.510;2024-03-23T08:46:48;99872.84;;;5.36;88.14
21988;BME280;11158;53.404;-1.510;2024-03-23T08:49:14;99884.97;;;5.43;90.16
21988;BME280;11158;53.404;-1.510;2024-03-23T08:51:39;99888.47;;;5.44;91.51
21988;BME280;11158;53.404;-1.510;2024-03-23T08:54:04;99854.72;;;5.24;93.39
21988;BME280;11158;53.404;-1.510;2024-03-23T08:56:30;99865.66;;;5.10;90.33
21988;BME280;11158;53.404;-1.510;2024-03-23T08:58:55;99860.94;;;5.21;92.33
21988;BME280;11158;53.404;-1.510;2024-03-23T09:01:23;99862.50;;;5.28;89.33
21988;BME280;11158;53.404;-1.510;2024-03-23T09:03:48;99861.28;;;5.40;90.10
21988;BME280;11158;53.404;-1.510;2024-03-23T09:06:14;99860.88;;;5.54;87.55
21988;BME280;11158;53.404;-1.510;2024-03-23T09:08:40;99854.31;;;5.67;85.94
21988;BME280;11158;53.404;-1.510;2024-03-23T09:11:07;99849.41;;;5.83;84.42
21988;BME280;11158;53.404;-1.510;2024-03-23T09:13:37;99840.75;;;6.08;81.05
21988;BME280;11158;53.404;-1.510;2024-03-23T09:16:03;99838.91;;;6.37;79.25
21988;BME280;11158;53.404;-1.510;2024-03-23T09:18:34;99839.03;;;6.07;80.84
21988;BME280;11158;53.404;-1.510;2024-03-23T09:21:04;99833.34;;;5.90;81.19
21988;BME280;11158;53.404;-1.510;2024-03-23T09:23:30;99836.72;;;5.95;81.13
21988;BME280;11158;53.404;-1.510;2024-03-23T09:25:55;99832.00;;;6.06;80.53
21988;BME280;11158;53.404;-1.510;2024-03-23T09:28:20;99832.72;;;6.11;77.67
21988;BME280;11158;53.404;-1.510;2024-03-23T09:30:46;99837.84;;;6.16;76.45
21988;BME280;11158;53.404;-1.510;2024-03-23T09:33:12;99823.34;;;6.28;75.58
21988;BME280;11158;53.404;-1.510;2024-03-23T09:35:38;99830.63;;;6.48;76.51
21988;BME280;11158;53.404;-1.510;2024-03-23T09:38:04;99849.03;;;6.24;82.34
21988;BME280;11158;53.404;-1.510;2024-03-23T09:40:29;99863.69;;;5.48;92.51
21988;BME280;11158;53.404;-1.510;2024-03-23T09:42:55;99862.19;;;4.75;97.49
21988;BME280;11158;53.404;-1.510;2024-03-23T09:45:27;99857.69;;;4.10;100.00
21988;BME280;11158;53.404;-1.510;2024-03-23T09:47:54;99855.22;;;4.02;100.00
21988;BME280;11158;53.404;-1.510;2024-03-23T09:50:20;99858.41;;;4.15;100.00
21988;BME280;11158;53.404;-1.510;2024-03-23T09:52:45;99855.38;;;4.32;100.00
21988;BME280;11158;53.404;-1.510;2024-03-23T09:55:11;99847.47;;;4.66;100.00
21988;BME280;11158;53.404;-1.510;2024-03-23T09:57:36;99839.84;;;4.88;100.00
21988;BME280;11158;53.404;-1.510;2024-03-23T10:00:02;99845.44;;;5.09;100.00
21988;BME280;11158;53.404;-1.510;2024-03-23T10:02:28;99827.19;;;5.31;99.24
21988;BME280;11158;53.404;-1.510;2024-03-23T10:04:54;99832.63;;;5.56;98.04
21988;BME280;11158;53.404;-1.510;2024-03-23T10:07:20;99827.75;;;6.00;96.20
21988;BME280;11158;53.404;-1.510;2024-03-23T10:09:47;99826.09;;;6.51;93.33
21988;BME280;11158;53.404;-1.510;2024-03-23T10:12:14;99820.63;;;6.56;81.25
21988;BME280;11158;53.404;-1.510;2024-03-23T10:14:40;99820.31;;;6.65;83.63
21988;BME280;11158;53.404;-1.510;2024-03-23T10:17:14;99819.41;;;6.66;77.72
21988;BME280;11158;53.404;-1.510;2024-03-23T10:19:41;99832.66;;;6.39;78.08
21988;BME280;11158;53.404;-1.510;2024-03-23T10:22:08;99830.63;;;5.93;81.38
21988;BME280;11158;53.404;-1.510;2024-03-23T10:24:34;99834.75;;;5.73;85.93
21988;BME280;11158;53.404;-1.510;2024-03-23T10:27:00;99835.03;;;5.64;84.87
21988;BME280;11158;53.404;-1.510;2024-03-23T10:29:25;99834.91;;;5.67;86.33
21988;BME280;11158;53.404;-1.510;2024-03-23T10:31:52;99840.63;;;5.53;87.27
21988;BME280;11158;53.404;-1.510;2024-03-23T10:34:24;99831.66;;;5.29;93.47
21988;BME280;11158;53.404;-1.510;2024-03-23T10:36:50;99837.13;;;5.23;92.66
21988;BME280;11158;53.404;-1.510;2024-03-23T10:39:17;99846.59;;;5.30;94.16
21988;BME280;11158;53.404;-1.510;2024-03-23T10:41:44;99856.16;;;5.34;95.41
21988;BME280;11158;53.404;-1.510;2024-03-23T10:44:11;99858.25;;;4.92;96.55
21988;BME280;11158;53.404;-1.510;2024-03-23T10:46:37;99853.16;;;4.49;100.00
21988;BME280;11158;53.404;-1.510;2024-03-23T10:49:03;99869.06;;;4.12;100.00
21988;BME280;11158;53.404;-1.510;2024-03-23T10:51:28;99876.97;;;3.73;100.00
21988;BME280;11158;53.404;-1.510;2024-03-23T10:53:54;99869.88;;;3.77;100.00
21988;BME280;11158;53.404;-1.510;2024-03-23T10:56:21;99851.22;;;3.86;100.00
21988;BME280;11158;53.404;-1.510;2024-03-23T10:58:48;99857.28;;;3.89;100.00
21988;BME280;11158;53.404;-1.510;2024-03-23T11:01:15;99850.00;;;4.01;100.00
21988;BME280;11158;53.404;-1.510;2024-03-23T11:03:45;99853.34;;;4.07;100.00
21988;BME280;11158;53.404;-1.510;2024-03-23T11:06:34;99848.06;;;4.43;100.00
21988;BME280;11158;53.404;-1.510;2024-03-23T11:08:59;99842.97;;;4.70;100.00
21988;BME280;11158;53.404;-1.510;2024-03-23T11:11:25;99828.88;;;5.02;100.00
21988;BME280;11158;53.404;-1.510;2024-03-23T11:13:53;99826.56;;;5.53;100.00
21988;BME280;11158;53.404;-1.510;2024-03-23T11:16:26;99812.50;;;6.09;100.00
21988;BME280;11158;53.404;-1.510;2024-03-23T11:18:53;99807.41;;;6.29;95.60
21988;BME280;11158;53.404;-1.510;2024-03-23T11:21:54;99807.28;;;6.07;95.44
21988;BME280;11158;53.404;-1.510;2024-03-23T11:24:23;99817.34;;;5.94;94.52
21988;BME280;11158;53.404;-1.510;2024-03-23T11:26:48;99791.97;;;5.60;93.04
21988;BME280;11158;53.404;-1.510;2024-03-23T11:29:16;99798.06;;;5.33;89.94
21988;BME280;11158;53.404;-1.510;2024-03-23T11:31:49;99804.19;;;5.35;89.39
21988;BME280;11158;53.404;-1.510;2024-03-23T11:34:15;99790.50;;;5.50;86.99
21988;BME280;11158;53.404;-1.510;2024-03-23T11:36:42;99797.72;;;5.45;87.94
21988;BME280;11158;53.404;-1.510;2024-03-23T11:39:18;99806.03;;;5.61;85.08
21988;BME280;11158;53.404;-1.510;2024-03-23T11:41:55;99807.34;;;5.76;88.27
21988;BME280;11158;53.404;-1.510;2024-03-23T11:44:26;99805.97;;;5.92;88.96
21988;BME280;11158;53.404;-1.510;2024-03-23T11:46:52;99793.13;;;6.08;86.10
21988;BME280;11158;53.404;-1.510;2024-03-23T11:51:48;99780.47;;;6.43;71.94
21988;BME280;11158;53.404;-1.510;2024-03-23T11:54:14;99779.06;;;6.58;77.24
21988;BME280;11158;53.404;-1.510;2024-03-23T11:56:40;99784.19;;;6.64;70.99
21988;BME280;11158;53.404;-1.510;2024-03-23T11:59:08;99773.78;;;6.83;73.43
21988;BME280;11158;53.404;-1.510;2024-03-23T12:01:34;99762.16;;;6.87;66.41
21988;BME280;11158;53.404;-1.510;2024-03-23T12:03:59;99764.38;;;6.98;68.60
21988;BME280;11158;53.404;-1.510;2024-03-23T12:06:25;99754.50;;;7.03;70.78
21988;BME280;11158;53.404;-1.510;2024-03-23T12:08:50;99762.22;;;7.09;68.04
21988;BME280;11158;53.404;-1.510;2024-03-23T12:11:16;99750.84;;;6.82;64.33
21988;BME280;11158;53.404;-1.510;2024-03-23T12:13:45;99756.72;;;6.90;64.61
21988;BME280;11158;53.404;-1.510;2024-03-23T12:16:21;99749.56;;;7.17;64.66
21988;BME280;11158;53.404;-1.510;2024-03-23T12:18:50;99758.47;;;7.15;62.02
21988;BME280;11158;53.404;-1.510;2024-03-23T12:21:20;99727.09;;;7.04;59.36
21988;BME280;11158;53.404;-1.510;2024-03-23T12:23:48;99740.03;;;7.12;60.81
21988;BME280;11158;53.404;-1.510;2024-03-23T12:26:15;99759.06;;;7.23;63.91
21988;BME280;11158;53.404;-1.510;2024-03-23T12:28:41;99759.34;;;7.15;65.31
21988;BME280;11158;53.404;-1.510;2024-03-23T12:31:07;99753.34;;;7.10;66.10
21988;BME280;11158;53.404;-1.510;2024-03-23T12:33:32;99767.34;;;7.14;66.93
21988;BME280;11158;53.404;-1.510;2024-03-23T12:35:57;99764.13;;;7.29;66.95
21988;BME280;11158;53.404;-1.510;2024-03-23T12:38:23;99749.75;;;7.35;67.49
21988;BME280;11158;53.404;-1.510;2024-03-23T12:40:52;99745.25;;;7.37;66.70
21988;BME280;11158;53.404;-1.510;2024-03-23T12:43:18;99760.97;;;7.41;63.37
21988;BME280;11158;53.404;-1.510;2024-03-23T12:45:50;99738.84;;;7.42;58.93
21988;BME280;11158;53.404;-1.510;2024-03-23T12:48:18;99736.81;;;7.49;60.29
21988;BME280;11158;53.404;-1.510;2024-03-23T12:50:44;99739.16;;;7.79;61.31
21988;BME280;11158;53.404;-1.510;2024-03-23T12:53:09;99714.22;;;7.83;58.78
21988;BME280;11158;53.404;-1.510;2024-03-23T12:55:35;99701.84;;;7.84;56.34
21988;BME280;11158;53.404;-1.510;2024-03-23T12:58:01;99707.63;;;7.93;57.00
21988;BME280;11158;53.404;-1.510;2024-03-23T13:00:26;99697.72;;;7.76;57.15
21988;BME280;11158;53.404;-1.510;2024-03-23T13:02:51;99703.63;;;7.83;54.86
21988;BME280;11158;53.404;-1.510;2024-03-23T13:05:17;99705.72;;;7.97;57.15
21988;BME280;11158;53.404;-1.510;2024-03-23T13:07:42;99700.84;;;7.86;55.18
21988;BME280;11158;53.404;-1.510;2024-03-23T13:10:08;99698.19;;;7.86;57.65
21988;BME280;11158;53.404;-1.510;2024-03-23T13:12:34;99702.44;;;7.90;58.81
21988;BME280;11158;53.404;-1.510;2024-03-23T13:15:00;99706.53;;;7.77;57.59
21988;BME280;11158;53.404;-1.510;2024-03-23T13:17:26;99696.28;;;7.90;58.82
21988;BME280;11158;53.404;-1.510;2024-03-23T13:19:55;99703.44;;;7.88;58.65
21988;BME280;11158;53.404;-1.510;2024-03-23T13:22:23;99717.66;;;8.07;58.26
21988;BME280;11158;53.404;-1.510;2024-03-23T13:24:48;99716.53;;;8.13;57.87
21988;BME280;11158;53.404;-1.510;2024-03-23T13:27:14;99730.00;;;8.08;58.71
21988;BME280;11158;53.404;-1.510;2024-03-23T13:29:39;99714.75;;;7.71;58.81
21988;BME280;11158;53.404;-1.510;2024-03-23T13:32:05;99727.97;;;7.72;60.03
21988;BME280;11158;53.404;-1.510;2024-03-23T13:34:31;99711.63;;;7.61;60.18
21988;BME280;11158;53.404;-1.510;2024-03-23T13:36:58;99729.59;;;7.53;60.58
21988;BME280;11158;53.404;-1.510;2024-03-23T13:39:24;99727.28;;;7.67;61.05
21988;BME280;11158;53.404;-1.510;2024-03-23T13:41:50;99719.41;;;7.86;59.67
21988;BME280;11158;53.404;-1.510;2024-03-23T13:44:15;99710.69;;;8.05;59.68
21988;BME280;11158;53.404;-1.510;2024-03-23T13:46:41;99714.78;;;8.12;59.53
21988;BME280;11158;53.404;-1.510;2024-03-23T13:49:24;99699.38;;;8.21;57.76